sensor_id;sensor_type;location;lat;lon;timestamp;P1;durP1;ratioP1;P2;durP2;ratioP2
4636;SDS011;2331;48.806;9.140;2022-08-19T00:01:22;18.30;;;14.00;;
4636;SDS011;2331;48.806;9.140;2022-08-19T00:03:50;17.17;;;13.93;;
4636;SDS011;2331;48.806;9.140;2022-08-19T00:06:17;17.80;;;13.90;;
4636;SDS011;2331;48.806;9.140;2022-08-19T00:08:45;16.90;;;13.77;;
4636;SDS011;2331;48.806;9.140;2022-08-19T00:11:12;22.43;;;15.27;;
4636;SDS011;2331;48.806;9.140;2022-08-19T00:13:39;18.27;;;13.33;;
4636;SDS011;2331;48.806;9.140;2022-08-19T00:16:06;19.83;;;14.77;;
4636;SDS011;2331;48.806;9.140;2022-08-19T00:18:33;19.23;;;14.40;;
4636;SDS011;2331;48.806;9.140;2022-08-19T00:21:00;17.93;;;13.83;;
4636;SDS011;2331;48.806;9.140;2022-08-19T00:23:28;16.53;;;12.47;;
4636;SDS011;2331;48.806;9.140;2022-08-19T00:25:56;18.20;;;13.30;;
4636;SDS011;2331;48.806;9.140;2022-08-19T00:28:23;21.30;;;15.03;;
4636;SDS011;2331;48.806;9.140;2022-08-19T00:30:50;22.80;;;15.70;;
4636;SDS011;2331;48.806;9.140;2022-08-19T00:33:18;19.30;;;14.37;;
4636;SDS011;2331;48.806;9.140;2022-08-19T00:35:45;21.60;;;14.03;;
4636;SDS011;2331;48.806;9.140;2022-08-19T00:38:11;19.20;;;14.03;;
4636;SDS011;2331;48.806;9.140;2022-08-19T00:40:38;27.30;;;15.90;;
4636;SDS011;2331;48.806;9.140;2022-08-19T00:43:09;21.10;;;15.13;;
4636;SDS011;2331;48.806;9.140;2022-08-19T00:45:39;19.73;;;14.30;;
4636;SDS011;2331;48.806;9.140;2022-08-19T00:48:08;18.13;;;13.53;;
4636;SDS011;2331;48.806;9.140;2022-08-19T00:50:35;19.63;;;14.97;;
4636;SDS011;2331;48.806;9.140;2022-08-19T00:53:05;23.30;;;15.70;;
4636;SDS011;2331;48.806;9.140;2022-08-19T00:55:33;19.77;;;14.60;;
4636;SDS011;2331;48.806;9.140;2022-08-19T00:58:01;19.07;;;13.93;;
4636;SDS011;2331;48.806;9.140;2022-08-19T01:00:33;19.70;;;14.20;;
4636;SDS011;2331;48.806;9.140;2022-08-19T01:03:02;23.10;;;15.57;;
4636;SDS011;2331;48.806;9.140;2022-08-19T01:05:29;19.83;;;15.40;;
4636;SDS011;2331;48.806;9.140;2022-08-19T01:07:56;19.53;;;14.07;;
4636;SDS011;2331;48.806;9.140;2022-08-19T01:10:25;19.87;;;14.63;;
4636;SDS011;2331;48.806;9.140;2022-08-19T01:12:53;17.93;;;14.13;;
4636;SDS011;2331;48.806;9.140;2022-08-19T01:15:22;19.43;;;14.50;;
4636;SDS011;2331;48.806;9.140;2022-08-19T01:17:54;23.10;;;16.23;;
4636;SDS011;2331;48.806;9.140;2022-08-19T01:20:23;20.70;;;15.50;;
4636;SDS011;2331;48.806;9.140;2022-08-19T01:22:52;19.00;;;14.70;;
4636;SDS011;2331;48.806;9.140;2022-08-19T01:25:21;19.67;;;15.30;;
4636;SDS011;2331;48.806;9.140;2022-08-19T01:27:51;19.23;;;15.00;;
4636;SDS011;2331;48.806;9.140;2022-08-19T01:30:20;20.53;;;15.10;;
4636;SDS011;2331;48.806;9.140;2022-08-19T01:32:50;15.97;;;11.93;;
4636;SDS011;2331;48.806;9.140;2022-08-19T01:35:18;20.70;;;15.40;;
4636;SDS011;2331;48.806;9.140;2022-08-19T01:37:46;19.23;;;14.83;;
4636;SDS011;2331;48.806;9.140;2022-08-19T01:40:19;19.10;;;15.10;;
4636;SDS011;2331;48.806;9.140;2022-08-19T01:42:50;21.20;;;15.50;;
4636;SDS011;2331;48.806;9.140;2022-08-19T01:45:18;21.57;;;16.00;;
4636;SDS011;2331;48.806;9.140;2022-08-19T01:47:46;25.40;;;16.47;;
4636;SDS011;2331;48.806;9.140;2022-08-19T01:50:13;24.83;;;16.30;;
4636;SDS011;2331;48.806;9.140;2022-08-19T01:52:41;24.90;;;16.73;;
4636;SDS011;2331;48.806;9.140;2022-08-19T01:55:10;23.27;;;16.70;;
4636;SDS011;2331;48.806;9.140;2022-08-19T01:57:41;21.90;;;16.07;;
4636;SDS011;2331;48.806;9.140;2022-08-19T02:00:13;20.10;;;15.67;;
4636;SDS011;2331;48.806;9.140;2022-08-19T02:02:42;21.23;;;16.43;;
4636;SDS011;2331;48.806;9.140;2022-08-19T02:05:09;21.37;;;16.37;;
4636;SDS011;2331;48.806;9.140;2022-08-19T02:07:38;21.93;;;16.40;;
4636;SDS011;2331;48.806;9.140;2022-08-19T02:10:06;22.90;;;17.47;;
4636;SDS011;2331;48.806;9.140;2022-08-19T02:12:35;26.97;;;17.40;;
4636;SDS011;2331;48.806;9.140;2022-08-19T02:15:04;26.90;;;18.27;;
4636;SDS011;2331;48.806;9.140;2022-08-19T02:17:31;28.43;;;18.10;;
4636;SDS011;2331;48.806;9.140;2022-08-19T02:19:58;29.10;;;18.87;;
4636;SDS011;2331;48.806;9.140;2022-08-19T02:22:26;26.60;;;18.33;;
4636;SDS011;2331;48.806;9.140;2022-08-19T02:24:53;28.27;;;17.50;;
4636;SDS011;2331;48.806;9.140;2022-08-19T02:27:21;26.53;;;18.43;;
4636;SDS011;2331;48.806;9.140;2022-08-19T02:29:48;27.67;;;17.67;;
4636;SDS011;2331;48.806;9.140;2022-08-19T02:32:17;25.80;;;18.07;;
4636;SDS011;2331;48.806;9.140;2022-08-19T02:34:45;31.80;;;19.03;;
4636;SDS011;2331;48.806;9.140;2022-08-19T02:37:12;27.00;;;18.80;;
4636;SDS011;2331;48.806;9.140;2022-08-19T02:39:53;25.90;;;18.60;;
4636;SDS011;2331;48.806;9.140;2022-08-19T02:42:19;26.50;;;18.77;;
4636;SDS011;2331;48.806;9.140;2022-08-19T02:44:46;26.10;;;18.10;;
4636;SDS011;2331;48.806;9.140;2022-08-19T02:47:13;25.90;;;18.33;;
4636;SDS011;2331;48.806;9.140;2022-08-19T02:49:41;26.93;;;18.90;;
4636;SDS011;2331;48.806;9.140;2022-08-19T02:52:08;30.33;;;18.80;;
4636;SDS011;2331;48.806;9.140;2022-08-19T02:54:36;29.10;;;20.93;;
4636;SDS011;2331;48.806;9.140;2022-08-19T02:57:03;28.10;;;20.67;;
4636;SDS011;2331;48.806;9.140;2022-08-19T02:59:30;27.00;;;19.80;;
4636;SDS011;2331;48.806;9.140;2022-08-19T03:01:57;28.87;;;20.40;;
4636;SDS011;2331;48.806;9.140;2022-08-19T03:04:24;26.67;;;19.70;;
4636;SDS011;2331;48.806;9.140;2022-08-19T03:06:52;31.60;;;21.60;;
4636;SDS011;2331;48.806;9.140;2022-08-19T03:09:19;27.50;;;21.13;;
4636;SDS011;2331;48.806;9.140;2022-08-19T03:11:46;31.33;;;21.67;;
4636;SDS011;2331;48.806;9.140;2022-08-19T03:14:13;31.53;;;22.70;;
4636;SDS011;2331;48.806;9.140;2022-08-19T03:16:43;30.27;;;21.37;;
4636;SDS011;2331;48.806;9.140;2022-08-19T03:19:12;26.40;;;19.97;;
4636;SDS011;2331;48.806;9.140;2022-08-19T03:21:39;30.30;;;21.40;;
4636;SDS011;2331;48.806;9.140;2022-08-19T03:24:08;29.10;;;21.23;;
4636;SDS011;2331;48.806;9.140;2022-08-19T03:26:38;24.27;;;16.67;;
4636;SDS011;2331;48.806;9.140;2022-08-19T03:29:05;29.30;;;21.90;;
4636;SDS011;2331;48.806;9.140;2022-08-19T03:31:33;30.43;;;22.10;;
4636;SDS011;2331;48.806;9.140;2022-08-19T03:34:00;30.70;;;22.33;;
4636;SDS011;2331;48.806;9.140;2022-08-19T03:36:27;29.03;;;21.80;;
4636;SDS011;2331;48.806;9.140;2022-08-19T03:38:55;30.40;;;23.23;;
4636;SDS011;2331;48.806;9.140;2022-08-19T03:41:25;29.93;;;22.50;;
4636;SDS011;2331;48.806;9.140;2022-08-19T03:43:54;30.43;;;22.90;;
4636;SDS011;2331;48.806;9.140;2022-08-19T03:46:22;29.47;;;21.20;;
4636;SDS011;2331;48.806;9.140;2022-08-19T03:48:50;28.53;;;21.83;;
4636;SDS011;2331;48.806;9.140;2022-08-19T03:51:20;31.60;;;23.17;;
4636;SDS011;2331;48.806;9.140;2022-08-19T03:53:49;32.07;;;23.40;;
4636;SDS011;2331;48.806;9.140;2022-08-19T03:56:16;28.83;;;21.50;;
4636;SDS011;2331;48.806;9.140;2022-08-19T03:58:45;29.80;;;22.10;;
4636;SDS011;2331;48.806;9.140;2022-08-19T04:01:13;31.33;;;23.00;;
4636;SDS011;2331;48.806;9.140;2022-08-19T04:03:42;29.87;;;23.10;;
4636;SDS011;2331;48.806;9.140;2022-08-19T04:06:11;31.63;;;23.90;;
4636;SDS011;2331;48.806;9.140;2022-08-19T04:08:38;34.00;;;23.27;;
4636;SDS011;2331;48.806;9.140;2022-08-19T04:11:06;34.70;;;25.43;;
4636;SDS011;2331;48.806;9.140;2022-08-19T04:13:33;29.53;;;22.70;;
4636;SDS011;2331;48.806;9.140;2022-08-19T04:16:02;31.00;;;23.23;;
4636;SDS011;2331;48.806;9.140;2022-08-19T04:18:29;34.13;;;24.13;;
4636;SDS011;2331;48.806;9.140;2022-08-19T04:20:56;30.63;;;22.73;;
4636;SDS011;2331;48.806;9.140;2022-08-19T04:23:23;35.30;;;24.67;;
4636;SDS011;2331;48.806;9.140;2022-08-19T04:25:50;30.70;;;22.40;;
4636;SDS011;2331;48.806;9.140;2022-08-19T04:28:16;34.60;;;24.23;;
4636;SDS011;2331;48.806;9.140;2022-08-19T04:30:44;28.20;;;21.47;;
4636;SDS011;2331;48.806;9.140;2022-08-19T04:33:15;33.90;;;24.80;;
4636;SDS011;2331;48.806;9.140;2022-08-19T04:35:45;32.20;;;24.87;;
4636;SDS011;2331;48.806;9.140;2022-08-19T04:38:13;30.07;;;20.77;;
4636;SDS011;2331;48.806;9.140;2022-08-19T04:40:41;32.50;;;24.23;;
4636;SDS011;2331;48.806;9.140;2022-08-19T04:43:26;33.20;;;24.33;;
4636;SDS011;2331;48.806;9.140;2022-08-19T04:45:53;33.70;;;24.60;;
4636;SDS011;2331;48.806;9.140;2022-08-19T04:48:22;32.47;;;23.80;;
4636;SDS011;2331;48.806;9.140;2022-08-19T04:50:52;33.97;;;24.17;;
4636;SDS011;2331;48.806;9.140;2022-08-19T04:53:22;31.80;;;23.60;;
4636;SDS011;2331;48.806;9.140;2022-08-19T04:55:49;31.53;;;23.93;;
4636;SDS011;2331;48.806;9.140;2022-08-19T04:58:16;34.00;;;24.33;;
4636;SDS011;2331;48.806;9.140;2022-08-19T05:00:43;35.13;;;25.90;;
4636;SDS011;2331;48.806;9.140;2022-08-19T05:03:10;34.10;;;24.03;;
4636;SDS011;2331;48.806;9.140;2022-08-19T05:05:39;34.10;;;25.60;;
4636;SDS011;2331;48.806;9.140;2022-08-19T05:08:07;35.17;;;25.90;;
4636;SDS011;2331;48.806;9.140;2022-08-19T05:10:34;36.80;;;25.20;;
4636;SDS011;2331;48.806;9.140;2022-08-19T05:13:02;31.90;;;24.33;;
4636;SDS011;2331;48.806;9.140;2022-08-19T05:15:29;33.13;;;24.60;;
4636;SDS011;2331;48.806;9.140;2022-08-19T05:17:56;28.70;;;22.60;;
4636;SDS011;2331;48.806;9.140;2022-08-19T05:20:42;33.30;;;25.00;;
4636;SDS011;2331;48.806;9.140;2022-08-19T05:23:26;32.53;;;25.13;;
4636;SDS011;2331;48.806;9.140;2022-08-19T05:25:53;35.73;;;26.27;;
4636;SDS011;2331;48.806;9.140;2022-08-19T05:28:20;33.90;;;25.30;;
4636;SDS011;2331;48.806;9.140;2022-08-19T05:30:46;34.33;;;25.00;;
4636;SDS011;2331;48.806;9.140;2022-08-19T05:33:15;32.10;;;25.27;;
4636;SDS011;2331;48.806;9.140;2022-08-19T05:35:43;33.37;;;24.17;;
4636;SDS011;2331;48.806;9.140;2022-08-19T05:38:11;32.33;;;24.77;;
4636;SDS011;2331;48.806;9.140;2022-08-19T05:40:38;35.90;;;25.23;;
4636;SDS011;2331;48.806;9.140;2022-08-19T05:43:06;33.93;;;25.53;;
4636;SDS011;2331;48.806;9.140;2022-08-19T05:45:37;29.70;;;22.70;;
4636;SDS011;2331;48.806;9.140;2022-08-19T05:48:07;36.73;;;24.63;;
4636;SDS011;2331;48.806;9.140;2022-08-19T05:50:36;29.13;;;22.90;;
4636;SDS011;2331;48.806;9.140;2022-08-19T05:53:04;34.40;;;24.80;;
4636;SDS011;2331;48.806;9.140;2022-08-19T05:55:31;34.60;;;25.13;;
4636;SDS011;2331;48.806;9.140;2022-08-19T05:57:58;33.23;;;23.87;;
4636;SDS011;2331;48.806;9.140;2022-08-19T06:00:27;31.10;;;23.17;;
4636;SDS011;2331;48.806;9.140;2022-08-19T06:02:56;31.97;;;24.87;;
4636;SDS011;2331;48.806;9.140;2022-08-19T06:05:28;36.83;;;25.30;;
4636;SDS011;2331;48.806;9.140;2022-08-19T06:07:55;31.93;;;24.37;;
4636;SDS011;2331;48.806;9.140;2022-08-19T06:10:23;34.00;;;24.47;;
4636;SDS011;2331;48.806;9.140;2022-08-19T06:12:51;32.50;;;23.33;;
4636;SDS011;2331;48.806;9.140;2022-08-19T06:15:18;31.00;;;22.60;;
4636;SDS011;2331;48.806;9.140;2022-08-19T06:17:49;35.03;;;26.23;;
4636;SDS011;2331;48.806;9.140;2022-08-19T06:20:15;31.53;;;24.83;;
4636;SDS011;2331;48.806;9.140;2022-08-19T06:22:43;37.50;;;25.40;;
4636;SDS011;2331;48.806;9.140;2022-08-19T06:25:15;32.80;;;25.20;;
4636;SDS011;2331;48.806;9.140;2022-08-19T06:27:43;35.10;;;26.77;;
4636;SDS011;2331;48.806;9.140;2022-08-19T06:30:11;30.60;;;22.93;;
4636;SDS011;2331;48.806;9.140;2022-08-19T06:32:39;32.27;;;24.53;;
4636;SDS011;2331;48.806;9.140;2022-08-19T06:35:06;31.00;;;24.10;;
4636;SDS011;2331;48.806;9.140;2022-08-19T06:37:33;32.63;;;24.50;;
4636;SDS011;2331;48.806;9.140;2022-08-19T06:40:00;36.80;;;24.87;;
4636;SDS011;2331;48.806;9.140;2022-08-19T06:42:27;31.87;;;23.23;;
4636;SDS011;2331;48.806;9.140;2022-08-19T06:44:55;34.87;;;25.73;;
4636;SDS011;2331;48.806;9.140;2022-08-19T06:47:22;30.07;;;23.13;;
4636;SDS011;2331;48.806;9.140;2022-08-19T06:49:52;30.97;;;24.20;;
4636;SDS011;2331;48.806;9.140;2022-08-19T06:52:23;34.33;;;25.53;;
4636;SDS011;2331;48.806;9.140;2022-08-19T06:54:50;32.47;;;23.70;;
4636;SDS011;2331;48.806;9.140;2022-08-19T06:57:17;32.00;;;24.73;;
4636;SDS011;2331;48.806;9.140;2022-08-19T06:59:44;35.83;;;24.00;;
4636;SDS011;2331;48.806;9.140;2022-08-19T07:02:12;31.27;;;23.77;;
4636;SDS011;2331;48.806;9.140;2022-08-19T07:04:38;33.87;;;23.97;;
4636;SDS011;2331;48.806;9.140;2022-08-19T07:07:06;38.90;;;26.23;;
4636;SDS011;2331;48.806;9.140;2022-08-19T07:09:37;33.70;;;24.50;;
4636;SDS011;2331;48.806;9.140;2022-08-19T07:12:05;36.77;;;24.27;;
4636;SDS011;2331;48.806;9.140;2022-08-19T07:14:34;33.03;;;24.37;;
4636;SDS011;2331;48.806;9.140;2022-08-19T07:17:02;32.67;;;24.83;;
4636;SDS011;2331;48.806;9.140;2022-08-19T07:19:31;31.07;;;23.57;;
4636;SDS011;2331;48.806;9.140;2022-08-19T07:21:58;31.13;;;23.50;;
4636;SDS011;2331;48.806;9.140;2022-08-19T07:24:29;32.70;;;24.67;;
4636;SDS011;2331;48.806;9.140;2022-08-19T07:26:58;33.87;;;24.20;;
4636;SDS011;2331;48.806;9.140;2022-08-19T07:29:28;34.20;;;24.40;;
4636;SDS011;2331;48.806;9.140;2022-08-19T07:31:55;33.10;;;23.23;;
4636;SDS011;2331;48.806;9.140;2022-08-19T07:34:23;32.07;;;24.53;;
4636;SDS011;2331;48.806;9.140;2022-08-19T07:36:52;33.90;;;23.63;;
4636;SDS011;2331;48.806;9.140;2022-08-19T07:39:21;31.47;;;22.57;;
4636;SDS011;2331;48.806;9.140;2022-08-19T07:41:49;34.27;;;22.33;;
4636;SDS011;2331;48.806;9.140;2022-08-19T07:44:17;29.60;;;22.17;;
4636;SDS011;2331;48.806;9.140;2022-08-19T07:46:47;31.47;;;23.17;;
4636;SDS011;2331;48.806;9.140;2022-08-19T07:49:17;31.13;;;22.97;;
4636;SDS011;2331;48.806;9.140;2022-08-19T07:51:45;28.83;;;22.80;;
4636;SDS011;2331;48.806;9.140;2022-08-19T07:54:15;27.33;;;19.90;;
4636;SDS011;2331;48.806;9.140;2022-08-19T07:56:42;30.43;;;21.00;;
4636;SDS011;2331;48.806;9.140;2022-08-19T07:59:10;33.10;;;21.63;;
4636;SDS011;2331;48.806;9.140;2022-08-19T08:01:37;28.57;;;21.70;;
4636;SDS011;2331;48.806;9.140;2022-08-19T08:04:05;30.70;;;23.07;;
4636;SDS011;2331;48.806;9.140;2022-08-19T08:06:50;30.77;;;22.77;;
4636;SDS011;2331;48.806;9.140;2022-08-19T08:09:37;30.77;;;22.90;;
4636;SDS011;2331;48.806;9.140;2022-08-19T08:12:06;30.90;;;21.73;;
4636;SDS011;2331;48.806;9.140;2022-08-19T08:14:36;27.83;;;21.27;;
4636;SDS011;2331;48.806;9.140;2022-08-19T08:17:05;26.90;;;21.40;;
4636;SDS011;2331;48.806;9.140;2022-08-19T08:19:32;27.77;;;20.97;;
4636;SDS011;2331;48.806;9.140;2022-08-19T08:22:00;26.43;;;19.70;;
4636;SDS011;2331;48.806;9.140;2022-08-19T08:24:28;28.13;;;21.43;;
4636;SDS011;2331;48.806;9.140;2022-08-19T08:26:58;30.17;;;22.37;;
4636;SDS011;2331;48.806;9.140;2022-08-19T08:29:26;27.60;;;20.57;;
4636;SDS011;2331;48.806;9.140;2022-08-19T08:31:54;30.00;;;21.60;;
4636;SDS011;2331;48.806;9.140;2022-08-19T08:34:21;27.10;;;21.00;;
4636;SDS011;2331;48.806;9.140;2022-08-19T08:36:48;27.53;;;21.33;;
4636;SDS011;2331;48.806;9.140;2022-08-19T08:39:18;28.17;;;21.40;;
4636;SDS011;2331;48.806;9.140;2022-08-19T08:41:49;30.23;;;23.20;;
4636;SDS011;2331;48.806;9.140;2022-08-19T08:44:23;26.27;;;19.97;;
4636;SDS011;2331;48.806;9.140;2022-08-19T08:46:58;29.47;;;22.20;;
4636;SDS011;2331;48.806;9.140;2022-08-19T08:49:28;28.60;;;21.60;;
4636;SDS011;2331;48.806;9.140;2022-08-19T08:52:04;30.30;;;21.20;;
4636;SDS011;2331;48.806;9.140;2022-08-19T08:54:35;30.10;;;22.07;;
4636;SDS011;2331;48.806;9.140;2022-08-19T08:57:07;28.57;;;20.43;;
4636;SDS011;2331;48.806;9.140;2022-08-19T08:59:40;27.00;;;20.70;;
4636;SDS011;2331;48.806;9.140;2022-08-19T09:02:09;29.03;;;20.00;;
4636;SDS011;2331;48.806;9.140;2022-08-19T09:04:36;26.90;;;19.90;;
4636;SDS011;2331;48.806;9.140;2022-08-19T09:07:11;29.40;;;19.10;;
4636;SDS011;2331;48.806;9.140;2022-08-19T09:09:49;26.87;;;19.40;;
4636;SDS011;2331;48.806;9.140;2022-08-19T09:12:20;25.40;;;19.63;;
4636;SDS011;2331;48.806;9.140;2022-08-19T09:14:56;27.43;;;20.40;;
4636;SDS011;2331;48.806;9.140;2022-08-19T09:17:27;23.93;;;18.27;;
4636;SDS011;2331;48.806;9.140;2022-08-19T09:19:58;28.13;;;19.80;;
4636;SDS011;2331;48.806;9.140;2022-08-19T09:22:30;26.20;;;19.93;;
4636;SDS011;2331;48.806;9.140;2022-08-19T09:24:56;23.93;;;18.23;;
4636;SDS011;2331;48.806;9.140;2022-08-19T09:27:24;26.03;;;19.33;;
4636;SDS011;2331;48.806;9.140;2022-08-19T09:29:52;25.37;;;18.47;;
4636;SDS011;2331;48.806;9.140;2022-08-19T09:32:21;24.10;;;17.80;;
4636;SDS011;2331;48.806;9.140;2022-08-19T09:34:49;25.33;;;17.60;;
4636;SDS011;2331;48.806;9.140;2022-08-19T09:37:19;26.30;;;19.53;;
4636;SDS011;2331;48.806;9.140;2022-08-19T09:39:47;25.00;;;17.00;;
4636;SDS011;2331;48.806;9.140;2022-08-19T09:42:14;22.87;;;16.50;;
4636;SDS011;2331;48.806;9.140;2022-08-19T09:44:41;23.63;;;17.00;;
4636;SDS011;2331;48.806;9.140;2022-08-19T09:47:09;25.07;;;16.30;;
4636;SDS011;2331;48.806;9.140;2022-08-19T09:49:38;22.77;;;16.30;;
4636;SDS011;2331;48.806;9.140;2022-08-19T09:52:06;21.70;;;15.73;;
4636;SDS011;2331;48.806;9.140;2022-08-19T09:54:35;18.90;;;15.00;;
4636;SDS011;2331;48.806;9.140;2022-08-19T09:57:02;23.10;;;17.30;;
4636;SDS011;2331;48.806;9.140;2022-08-19T09:59:29;21.33;;;15.23;;
4636;SDS011;2331;48.806;9.140;2022-08-19T10:01:57;20.23;;;15.70;;
4636;SDS011;2331;48.806;9.140;2022-08-19T10:04:24;22.70;;;15.97;;
4636;SDS011;2331;48.806;9.140;2022-08-19T10:07:12;20.70;;;14.73;;
4636;SDS011;2331;48.806;9.140;2022-08-19T10:09:39;24.10;;;15.80;;
4636;SDS011;2331;48.806;9.140;2022-08-19T10:12:06;19.17;;;15.07;;
4636;SDS011;2331;48.806;9.140;2022-08-19T10:14:34;22.73;;;16.43;;
4636;SDS011;2331;48.806;9.140;2022-08-19T10:17:00;18.53;;;14.17;;
4636;SDS011;2331;48.806;9.140;2022-08-19T10:19:28;24.00;;;15.20;;
4636;SDS011;2331;48.806;9.140;2022-08-19T10:22:02;16.70;;;13.90;;
4636;SDS011;2331;48.806;9.140;2022-08-19T10:24:30;20.67;;;15.10;;
4636;SDS011;2331;48.806;9.140;2022-08-19T10:26:58;17.57;;;13.20;;
4636;SDS011;2331;48.806;9.140;2022-08-19T10:29:25;20.60;;;15.10;;
4636;SDS011;2331;48.806;9.140;2022-08-19T10:31:53;18.20;;;13.60;;
4636;SDS011;2331;48.806;9.140;2022-08-19T10:34:21;16.27;;;12.00;;
4636;SDS011;2331;48.806;9.140;2022-08-19T10:36:47;20.50;;;13.90;;
4636;SDS011;2331;48.806;9.140;2022-08-19T10:39:14;17.80;;;12.67;;
4636;SDS011;2331;48.806;9.140;2022-08-19T10:41:42;16.33;;;13.60;;
4636;SDS011;2331;48.806;9.140;2022-08-19T10:44:10;19.47;;;13.87;;
4636;SDS011;2331;48.806;9.140;2022-08-19T10:46:38;18.67;;;12.03;;
4636;SDS011;2331;48.806;9.140;2022-08-19T10:49:07;18.33;;;12.33;;
4636;SDS011;2331;48.806;9.140;2022-08-19T10:51:37;14.87;;;11.67;;
4636;SDS011;2331;48.806;9.140;2022-08-19T10:54:21;15.73;;;12.17;;
4636;SDS011;2331;48.806;9.140;2022-08-19T10:56:51;16.83;;;12.20;;
4636;SDS011;2331;48.806;9.140;2022-08-19T10:59:18;16.30;;;12.60;;
4636;SDS011;2331;48.806;9.140;2022-08-19T11:01:47;14.90;;;11.07;;
4636;SDS011;2331;48.806;9.140;2022-08-19T11:04:15;16.93;;;12.23;;
4636;SDS011;2331;48.806;9.140;2022-08-19T11:06:43;15.93;;;10.10;;
4636;SDS011;2331;48.806;9.140;2022-08-19T11:09:12;14.00;;;9.97;;
4636;SDS011;2331;48.806;9.140;2022-08-19T11:11:40;11.80;;;9.47;;
4636;SDS011;2331;48.806;9.140;2022-08-19T11:14:09;18.90;;;12.30;;
4636;SDS011;2331;48.806;9.140;2022-08-19T11:16:38;17.60;;;11.60;;
4636;SDS011;2331;48.806;9.140;2022-08-19T11:19:06;13.90;;;10.13;;
4636;SDS011;2331;48.806;9.140;2022-08-19T11:21:35;14.03;;;11.40;;
4636;SDS011;2331;48.806;9.140;2022-08-19T11:24:05;14.10;;;11.37;;
4636;SDS011;2331;48.806;9.140;2022-08-19T11:26:34;13.77;;;9.50;;
4636;SDS011;2331;48.806;9.140;2022-08-19T11:29:02;12.50;;;9.90;;
4636;SDS011;2331;48.806;9.140;2022-08-19T11:31:31;14.03;;;9.80;;
4636;SDS011;2331;48.806;9.140;2022-08-19T11:34:01;12.77;;;9.90;;
4636;SDS011;2331;48.806;9.140;2022-08-19T11:36:29;14.37;;;9.80;;
4636;SDS011;2331;48.806;9.140;2022-08-19T11:38:57;13.63;;;10.23;;
4636;SDS011;2331;48.806;9.140;2022-08-19T11:41:24;11.30;;;9.40;;
4636;SDS011;2331;48.806;9.140;2022-08-19T11:43:52;13.43;;;9.90;;
4636;SDS011;2331;48.806;9.140;2022-08-19T11:46:21;12.67;;;9.50;;
4636;SDS011;2331;48.806;9.140;2022-08-19T11:48:50;16.00;;;9.80;;
4636;SDS011;2331;48.806;9.140;2022-08-19T11:51:18;12.70;;;9.93;;
4636;SDS011;2331;48.806;9.140;2022-08-19T11:53:46;13.83;;;9.30;;
4636;SDS011;2331;48.806;9.140;2022-08-19T11:56:14;11.77;;;8.70;;
4636;SDS011;2331;48.806;9.140;2022-08-19T11:58:41;14.07;;;9.90;;
4636;SDS011;2331;48.806;9.140;2022-08-19T12:01:08;14.57;;;10.40;;
4636;SDS011;2331;48.806;9.140;2022-08-19T12:03:37;13.23;;;10.60;;
4636;SDS011;2331;48.806;9.140;2022-08-19T12:06:06;15.20;;;10.63;;
4636;SDS011;2331;48.806;9.140;2022-08-19T12:08:34;14.50;;;10.53;;
4636;SDS011;2331;48.806;9.140;2022-08-19T12:11:01;12.97;;;8.93;;
4636;SDS011;2331;48.806;9.140;2022-08-19T12:13:28;11.83;;;9.40;;
4636;SDS011;2331;48.806;9.140;2022-08-19T12:15:56;11.90;;;9.40;;
4636;SDS011;2331;48.806;9.140;2022-08-19T12:18:23;12.40;;;10.33;;
4636;SDS011;2331;48.806;9.140;2022-08-19T12:20:51;13.27;;;9.27;;
4636;SDS011;2331;48.806;9.140;2022-08-19T12:23:20;10.33;;;8.60;;
4636;SDS011;2331;48.806;9.140;2022-08-19T12:25:48;17.30;;;10.60;;
4636;SDS011;2331;48.806;9.140;2022-08-19T12:28:16;13.00;;;9.23;;
4636;SDS011;2331;48.806;9.140;2022-08-19T12:30:44;12.00;;;8.77;;
4636;SDS011;2331;48.806;9.140;2022-08-19T12:33:11;12.30;;;9.07;;
4636;SDS011;2331;48.806;9.140;2022-08-19T12:35:39;12.13;;;9.10;;
4636;SDS011;2331;48.806;9.140;2022-08-19T12:38:06;13.00;;;8.10;;
4636;SDS011;2331;48.806;9.140;2022-08-19T12:40:34;12.03;;;8.87;;
4636;SDS011;2331;48.806;9.140;2022-08-19T12:43:01;10.97;;;8.23;;
4636;SDS011;2331;48.806;9.140;2022-08-19T12:45:29;9.33;;;7.43;;
4636;SDS011;2331;48.806;9.140;2022-08-19T12:47:55;9.50;;;7.50;;
4636;SDS011;2331;48.806;9.140;2022-08-19T12:50:23;9.27;;;7.67;;
4636;SDS011;2331;48.806;9.140;2022-08-19T12:52:50;10.90;;;8.37;;
4636;SDS011;2331;48.806;9.140;2022-08-19T12:55:17;10.27;;;8.10;;
4636;SDS011;2331;48.806;9.140;2022-08-19T12:57:45;9.30;;;7.43;;
4636;SDS011;2331;48.806;9.140;2022-08-19T13:00:14;9.47;;;6.80;;
4636;SDS011;2331;48.806;9.140;2022-08-19T13:02:44;10.43;;;7.97;;
4636;SDS011;2331;48.806;9.140;2022-08-19T13:05:12;10.90;;;7.77;;
4636;SDS011;2331;48.806;9.140;2022-08-19T13:07:41;10.83;;;8.20;;
4636;SDS011;2331;48.806;9.140;2022-08-19T13:10:11;10.70;;;7.83;;
4636;SDS011;2331;48.806;9.140;2022-08-19T13:12:40;9.80;;;6.97;;
4636;SDS011;2331;48.806;9.140;2022-08-19T13:15:09;9.63;;;7.47;;
4636;SDS011;2331;48.806;9.140;2022-08-19T13:17:37;7.93;;;7.03;;
4636;SDS011;2331;48.806;9.140;2022-08-19T13:20:05;12.10;;;7.83;;
4636;SDS011;2331;48.806;9.140;2022-08-19T13:22:34;11.13;;;8.00;;
4636;SDS011;2331;48.806;9.140;2022-08-19T13:25:01;10.10;;;8.20;;
4636;SDS011;2331;48.806;9.140;2022-08-19T13:27:28;8.67;;;7.20;;
4636;SDS011;2331;48.806;9.140;2022-08-19T13:29:55;13.70;;;9.27;;
4636;SDS011;2331;48.806;9.140;2022-08-19T13:32:41;12.60;;;9.73;;
4636;SDS011;2331;48.806;9.140;2022-08-19T13:35:25;16.30;;;9.90;;
4636;SDS011;2331;48.806;9.140;2022-08-19T13:37:52;12.17;;;9.27;;
4636;SDS011;2331;48.806;9.140;2022-08-19T13:40:20;12.57;;;9.17;;
4636;SDS011;2331;48.806;9.140;2022-08-19T13:42:49;17.00;;;11.87;;
4636;SDS011;2331;48.806;9.140;2022-08-19T13:45:18;19.97;;;13.30;;
4636;SDS011;2331;48.806;9.140;2022-08-19T13:47:48;16.60;;;12.47;;
4636;SDS011;2331;48.806;9.140;2022-08-19T13:50:16;16.20;;;12.30;;
4636;SDS011;2331;48.806;9.140;2022-08-19T13:52:45;18.90;;;12.13;;
4636;SDS011;2331;48.806;9.140;2022-08-19T13:55:13;19.77;;;14.77;;
4636;SDS011;2331;48.806;9.140;2022-08-19T13:57:41;17.93;;;12.60;;
4636;SDS011;2331;48.806;9.140;2022-08-19T14:00:09;20.50;;;16.00;;
4636;SDS011;2331;48.806;9.140;2022-08-19T14:02:40;21.67;;;15.30;;
4636;SDS011;2331;48.806;9.140;2022-08-19T14:05:10;23.20;;;17.10;;
4636;SDS011;2331;48.806;9.140;2022-08-19T14:07:38;22.23;;;16.53;;
4636;SDS011;2331;48.806;9.140;2022-08-19T14:10:06;24.37;;;17.03;;
4636;SDS011;2331;48.806;9.140;2022-08-19T14:12:35;18.80;;;14.80;;
4636;SDS011;2331;48.806;9.140;2022-08-19T14:15:02;19.50;;;14.20;;
4636;SDS011;2331;48.806;9.140;2022-08-19T14:17:31;19.40;;;15.97;;
4636;SDS011;2331;48.806;9.140;2022-08-19T14:20:00;20.43;;;15.50;;
4636;SDS011;2331;48.806;9.140;2022-08-19T14:22:33;22.33;;;16.10;;
4636;SDS011;2331;48.806;9.140;2022-08-19T14:25:00;29.20;;;17.07;;
4636;SDS011;2331;48.806;9.140;2022-08-19T14:27:27;27.27;;;19.30;;
4636;SDS011;2331;48.806;9.140;2022-08-19T14:29:54;25.20;;;18.90;;
4636;SDS011;2331;48.806;9.140;2022-08-19T14:32:21;21.83;;;16.93;;
4636;SDS011;2331;48.806;9.140;2022-08-19T14:34:47;22.50;;;16.77;;
4636;SDS011;2331;48.806;9.140;2022-08-19T14:37:14;23.87;;;17.47;;
4636;SDS011;2331;48.806;9.140;2022-08-19T14:39:43;22.77;;;16.60;;
4636;SDS011;2331;48.806;9.140;2022-08-19T14:42:10;20.83;;;15.10;;
4636;SDS011;2331;48.806;9.140;2022-08-19T14:44:39;20.07;;;14.27;;
4636;SDS011;2331;48.806;9.140;2022-08-19T14:47:06;19.67;;;14.90;;
4636;SDS011;2331;48.806;9.140;2022-08-19T14:49:33;22.93;;;15.23;;
4636;SDS011;2331;48.806;9.140;2022-08-19T14:52:00;20.03;;;15.57;;
4636;SDS011;2331;48.806;9.140;2022-08-19T14:54:27;19.77;;;15.37;;
4636;SDS011;2331;48.806;9.140;2022-08-19T14:56:55;17.97;;;13.13;;
4636;SDS011;2331;48.806;9.140;2022-08-19T14:59:22;19.17;;;14.23;;